sensor_id;sensor_type;location;lat;lon;timestamp;pressure;altitude;pressure_sealevel;temperature;humidity
46944;BME280;32678;43.852;25.952;2023-05-10T00:01:18;101794.91;;;12.31;78.29
46944;BME280;32678;43.852;25.952;2023-05-10T00:06:14;101791.72;;;12.54;77.75
46944;BME280;32678;43.852;25.952;2023-05-10T00:11:13;101788.63;;;12.72;76.59
46944;BME280;32678;43.852;25.952;2023-05-10T00:16:11;101785.25;;;12.67;75.61
46944;BME280;32678;43.852;25.952;2023-05-10T00:21:09;101785.88;;;12.77;76.01
46944;BME280;32678;43.852;25.952;2023-05-10T00:26:06;101792.84;;;12.79;74.88
46944;BME280;32678;43.852;25.952;2023-05-10T00:31:02;101790.34;;;12.75;74.86
46944;BME280;32678;43.852;25.952;2023-05-10T00:35:59;101787.03;;;12.31;76.39
46944;BME280;32678;43.852;25.952;2023-05-10T00:40:57;101780.31;;;11.78;78.56
46944;BME280;32678;43.852;25.952;2023-05-10T00:45:58;101784.59;;;11.41;80.49
46944;BME280;32678;43.852;25.952;2023-05-10T00:50:57;101787.81;;;11.53;79.98
46944;BME280;32678;43.852;25.952;2023-05-10T00:55:54;101783.03;;;11.32;81.80
46944;BME280;32678;43.852;25.952;2023-05-10T01:00:52;101783.34;;;11.58;80.08
46944;BME280;32678;43.852;25.952;2023-05-10T01:05:48;101777.97;;;11.64;79.09
46944;BME280;32678;43.852;25.952;2023-05-10T01:10:45;101765.69;;;11.66;79.01
46944;BME280;32678;43.852;25.952;2023-05-10T01:15:44;101772.53;;;11.75;78.15
46944;BME280;32678;43.852;25.952;2023-05-10T01:20:44;101761.81;;;11.84;77.66
46944;BME280;32678;43.852;25.952;2023-05-10T01:26:05;101767.84;;;11.89;77.50
46944;BME280;32678;43.852;25.952;2023-05-10T01:31:07;101766.28;;;11.81;77.88
46944;BME280;32678;43.852;25.952;2023-05-10T01:36:05;101764.41;;;11.86;76.74
46944;BME280;32678;43.852;25.952;2023-05-10T01:41:07;101762.41;;;11.97;77.02
46944;BME280;32678;43.852;25.952;2023-05-10T01:46:09;101764.66;;;12.12;75.86
46944;BME280;32678;43.852;25.952;2023-05-10T01:51:07;101757.28;;;12.28;75.04
46944;BME280;32678;43.852;25.952;2023-05-10T01:56:05;101762.06;;;12.47;73.61
46944;BME280;32678;43.852;25.952;2023-05-10T02:01:04;101768.06;;;12.52;73.37
46944;BME280;32678;43.852;25.952;2023-05-10T02:06:01;101763.81;;;12.48;72.19
46944;BME280;32678;43.852;25.952;2023-05-10T02:11:00;101775.78;;;12.60;71.74
46944;BME280;32678;43.852;25.952;2023-05-10T02:15:58;101772.22;;;12.63;72.05
46944;BME280;32678;43.852;25.952;2023-05-10T02:20:55;101783.59;;;12.63;70.67
46944;BME280;32678;43.852;25.952;2023-05-10T02:25:52;101783.19;;;12.44;71.23
46944;BME280;32678;43.852;25.952;2023-05-10T02:30:51;101782.50;;;11.99;72.75
46944;BME280;32678;43.852;25.952;2023-05-10T02:35:47;101778.41;;;11.86;73.30
46944;BME280;32678;43.852;25.952;2023-05-10T02:40:44;101771.50;;;11.39;74.03
46944;BME280;32678;43.852;25.952;2023-05-10T02:45:42;101771.78;;;11.24;74.78
46944;BME280;32678;43.852;25.952;2023-05-10T02:50:40;101773.66;;;10.71;76.32
46944;BME280;32678;43.852;25.952;2023-05-10T02:55:40;101769.69;;;10.98;75.95
46944;BME280;32678;43.852;25.952;2023-05-10T03:00:37;101775.19;;;10.83;76.12
46944;BME280;32678;43.852;25.952;2023-05-10T03:05:33;101772.88;;;11.14;75.63
46944;BME280;32678;43.852;25.952;2023-05-10T03:10:32;101779.13;;;11.07;74.57
46944;BME280;32678;43.852;25.952;2023-05-10T03:15:31;101770.41;;;11.05;75.31
46944;BME280;32678;43.852;25.952;2023-05-10T03:20:33;101780.44;;;10.84;76.21
46944;BME280;32678;43.852;25.952;2023-05-10T03:25:31;101774.16;;;10.92;76.19
46944;BME280;32678;43.852;25.952;2023-05-10T03:30:30;101768.47;;;11.16;75.47
46944;BME280;32678;43.852;25.952;2023-05-10T03:35:28;101748.97;;;10.83;76.12
46944;BME280;32678;43.852;25.952;2023-05-10T03:40:24;101787.31;;;10.90;76.19
46944;BME280;32678;43.852;25.952;2023-05-10T03:45:22;101790.94;;;10.84;76.81
46944;BME280;32678;43.852;25.952;2023-05-10T03:50:20;101780.97;;;11.02;76.76
46944;BME280;32678;43.852;25.952;2023-05-10T03:55:17;101785.88;;;10.72;77.78
46944;BME280;32678;43.852;25.952;2023-05-10T04:00:14;101784.56;;;10.96;76.79
46944;BME280;32678;43.852;25.952;2023-05-10T04:05:12;101794.03;;;11.05;76.84
46944;BME280;32678;43.852;25.952;2023-05-10T04:10:10;101789.16;;;11.33;76.49
46944;BME280;32678;43.852;25.952;2023-05-10T04:15:07;101788.97;;;11.42;76.05
46944;BME280;32678;43.852;25.952;2023-05-10T04:20:04;101786.78;;;11.62;76.04
46944;BME280;32678;43.852;25.952;2023-05-10T04:25:01;101791.56;;;11.43;76.51
46944;BME280;32678;43.852;25.952;2023-05-10T04:29:58;101793.31;;;11.43;77.05
46944;BME280;32678;43.852;25.952;2023-05-10T04:34:55;101791.94;;;11.66;76.90
46944;BME280;32678;43.852;25.952;2023-05-10T04:39:51;101779.34;;;11.84;76.47
46944;BME280;32678;43.852;25.952;2023-05-10T04:44:48;101788.69;;;11.54;77.75
46944;BME280;32678;43.852;25.952;2023-05-10T04:49:45;101792.69;;;11.73;77.13
46944;BME280;32678;43.852;25.952;2023-05-10T04:54:42;101792.34;;;11.48;78.80
46944;BME280;32678;43.852;25.952;2023-05-10T04:59:39;101784.28;;;11.57;78.77
46944;BME280;32678;43.852;25.952;2023-05-10T05:04:35;101794.13;;;11.46;80.49
46944;BME280;32678;43.852;25.952;2023-05-10T05:09:33;101789.66;;;11.50;79.90
46944;BME280;32678;43.852;25.952;2023-05-10T05:14:29;101798.00;;;11.70;79.67
46944;BME280;32678;43.852;25.952;2023-05-10T05:19:26;101800.06;;;11.97;78.91
46944;BME280;32678;43.852;25.952;2023-05-10T05:24:23;101796.97;;;12.17;77.17
46944;BME280;32678;43.852;25.952;2023-05-10T05:29:20;101801.84;;;11.97;78.15
46944;BME280;32678;43.852;25.952;2023-05-10T05:34:17;101787.91;;;11.49;80.29
46944;BME280;32678;43.852;25.952;2023-05-10T05:39:13;101776.22;;;11.63;80.75
46944;BME280;32678;43.852;25.952;2023-05-10T05:44:10;101797.69;;;11.87;80.23
46944;BME280;32678;43.852;25.952;2023-05-10T05:49:08;101800.97;;;11.96;79.56
46944;BME280;32678;43.852;25.952;2023-05-10T05:54:05;101797.09;;;12.12;79.19
46944;BME280;32678;43.852;25.952;2023-05-10T05:59:02;101802.81;;;12.31;78.03
46944;BME280;32678;43.852;25.952;2023-05-10T06:04:02;101801.03;;;11.50;80.83
46944;BME280;32678;43.852;25.952;2023-05-10T06:09:00;101795.69;;;11.55;82.33
46944;BME280;32678;43.852;25.952;2023-05-10T06:13:58;101806.84;;;11.66;82.13
46944;BME280;32678;43.852;25.952;2023-05-10T06:19:06;101804.41;;;11.98;81.20
46944;BME280;32678;43.852;25.952;2023-05-10T06:24:04;101799.94;;;11.60;83.43
46944;BME280;32678;43.852;25.952;2023-05-10T06:29:02;101793.50;;;11.34;86.51
46944;BME280;32678;43.852;25.952;2023-05-10T06:34:00;101793.78;;;11.63;85.10
46944;BME280;32678;43.852;25.952;2023-05-10T06:38:57;101795.41;;;12.10;83.27
46944;BME280;32678;43.852;25.952;2023-05-10T06:43:55;101792.63;;;12.16;84.13
46944;BME280;32678;43.852;25.952;2023-05-10T06:48:51;101801.28;;;12.21;84.85
46944;BME280;32678;43.852;25.952;2023-05-10T06:53:48;101803.09;;;12.18;84.53
46944;BME280;32678;43.852;25.952;2023-05-10T06:58:45;101803.06;;;12.56;82.36
46944;BME280;32678;43.852;25.952;2023-05-10T07:03:45;101797.13;;;12.48;81.88
46944;BME280;32678;43.852;25.952;2023-05-10T07:08:44;101794.06;;;11.92;85.80
46944;BME280;32678;43.852;25.952;2023-05-10T07:13:41;101789.84;;;11.84;87.38
46944;BME280;32678;43.852;25.952;2023-05-10T07:18:40;101787.94;;;12.30;84.95
46944;BME280;32678;43.852;25.952;2023-05-10T07:23:37;101795.28;;;12.14;87.04
46944;BME280;32678;43.852;25.952;2023-05-10T07:28:40;101803.34;;;12.45;85.52
46944;BME280;32678;43.852;25.952;2023-05-10T07:33:37;101791.84;;;12.49;85.57
46944;BME280;32678;43.852;25.952;2023-05-10T07:38:36;101788.38;;;12.47;86.63
46944;BME280;32678;43.852;25.952;2023-05-10T07:43:37;101781.06;;;12.60;85.78
46944;BME280;32678;43.852;25.952;2023-05-10T07:48:34;101764.53;;;12.55;85.28
46944;BME280;32678;43.852;25.952;2023-05-10T07:53:31;101782.97;;;12.87;85.06
46944;BME280;32678;43.852;25.952;2023-05-10T07:58:28;101782.44;;;13.07;83.41
46944;BME280;32678;43.852;25.952;2023-05-10T08:03:27;101782.81;;;13.27;81.22
46944;BME280;32678;43.852;25.952;2023-05-10T08:08:24;101785.47;;;13.86;79.19
46944;BME280;32678;43.852;25.952;2023-05-10T08:13:21;101781.66;;;13.96;75.98
46944;BME280;32678;43.852;25.952;2023-05-10T08:18:19;101782.25;;;13.76;76.42
46944;BME280;32678;43.852;25.952;2023-05-10T08:23:18;101788.50;;;13.43;77.43
46944;BME280;32678;43.852;25.952;2023-05-10T08:28:15;101781.06;;;13.57;77.38
46944;BME280;32678;43.852;25.952;2023-05-10T08:33:12;101778.09;;;14.25;73.47
46944;BME280;32678;43.852;25.952;2023-05-10T08:38:09;101774.03;;;14.15;70.09
46944;BME280;32678;43.852;25.952;2023-05-10T08:43:08;101771.47;;;14.41;66.63
46944;BME280;32678;43.852;25.952;2023-05-10T08:48:11;101774.03;;;14.95;59.86
46944;BME280;32678;43.852;25.952;2023-05-10T08:53:09;101766.03;;;15.45;54.01
46944;BME280;32678;43.852;25.952;2023-05-10T08:58:07;101762.63;;;15.66;53.07
46944;BME280;32678;43.852;25.952;2023-05-10T09:03:05;101761.22;;;16.02;47.27
46944;BME280;32678;43.852;25.952;2023-05-10T09:08:03;101766.81;;;16.17;46.82
46944;BME280;32678;43.852;25.952;2023-05-10T09:13:00;101747.66;;;16.10;46.20
46944;BME280;32678;43.852;25.952;2023-05-10T09:18:00;101755.78;;;16.27;46.32
46944;BME280;32678;43.852;25.952;2023-05-10T09:22:58;101758.13;;;16.35;46.24
46944;BME280;32678;43.852;25.952;2023-05-10T09:27:55;101751.91;;;16.78;43.29
46944;BME280;32678;43.852;25.952;2023-05-10T09:32:52;101753.31;;;16.23;45.63
46944;BME280;32678;43.852;25.952;2023-05-10T09:37:50;101753.03;;;16.72;43.82
46944;BME280;32678;43.852;25.952;2023-05-10T09:42:52;101743.91;;;16.59;44.54
46944;BME280;32678;43.852;25.952;2023-05-10T09:47:49;101737.91;;;16.76;43.88
46944;BME280;32678;43.852;25.952;2023-05-10T09:52:47;101735.09;;;16.99;43.51
46944;BME280;32678;43.852;25.952;2023-05-10T09:57:45;101732.00;;;16.47;44.46
46944;BME280;32678;43.852;25.952;2023-05-10T10:02:44;101722.56;;;16.20;45.27
46944;BME280;32678;43.852;25.952;2023-05-10T10:07:41;101726.16;;;16.61;44.05
46944;BME280;32678;43.852;25.952;2023-05-10T10:12:41;101708.25;;;16.46;45.14
46944;BME280;32678;43.852;25.952;2023-05-10T10:17:38;101723.47;;;16.19;45.12
46944;BME280;32678;43.852;25.952;2023-05-10T10:22:36;101719.66;;;16.68;43.89
46944;BME280;32678;43.852;25.952;2023-05-10T10:27:36;101720.94;;;17.00;43.27
46944;BME280;32678;43.852;25.952;2023-05-10T10:32:42;101722.47;;;16.65;44.16
46944;BME280;32678;43.852;25.952;2023-05-10T10:37:44;101713.66;;;16.85;43.89
46944;BME280;32678;43.852;25.952;2023-05-10T10:42:45;101704.69;;;16.87;43.48
46944;BME280;32678;43.852;25.952;2023-05-10T10:47:43;101703.34;;;17.18;42.73
46944;BME280;32678;43.852;25.952;2023-05-10T10:52:40;101695.13;;;17.43;41.59
46944;BME280;32678;43.852;25.952;2023-05-10T10:57:45;101697.44;;;17.11;41.45
46944;BME280;32678;43.852;25.952;2023-05-10T11:02:44;101684.16;;;16.93;41.13
46944;BME280;32678;43.852;25.952;2023-05-10T11:07:51;101667.94;;;17.00;41.30
46944;BME280;32678;43.852;25.952;2023-05-10T11:12:51;101673.53;;;17.50;39.57
46944;BME280;32678;43.852;25.952;2023-05-10T11:17:52;101667.16;;;17.17;41.48
46944;BME280;32678;43.852;25.952;2023-05-10T11:22:51;101646.97;;;16.96;40.78
46944;BME280;32678;43.852;25.952;2023-05-10T11:27:48;101670.09;;;17.11;40.78
46944;BME280;32678;43.852;25.952;2023-05-10T11:32:52;101660.44;;;17.47;39.05
46944;BME280;32678;43.852;25.952;2023-05-10T11:38:48;101662.50;;;17.03;40.50
46944;BME280;32678;43.852;25.952;2023-05-10T11:43:46;101642.22;;;17.02;39.71
46944;BME280;32678;43.852;25.952;2023-05-10T11:48:46;101657.72;;;17.30;37.34
46944;BME280;32678;43.852;25.952;2023-05-10T11:53:43;101656.50;;;17.56;37.39
46944;BME280;32678;43.852;25.952;2023-05-10T11:58:40;101640.28;;;17.81;37.48
46944;BME280;32678;43.852;25.952;2023-05-10T12:03:37;101641.31;;;17.41;37.93
46944;BME280;32678;43.852;25.952;2023-05-10T12:08:35;101641.25;;;17.42;39.66
46944;BME280;32678;43.852;25.952;2023-05-10T12:13:32;101630.41;;;17.47;39.30
46944;BME280;32678;43.852;25.952;2023-05-10T12:18:29;101623.34;;;17.28;39.02
46944;BME280;32678;43.852;25.952;2023-05-10T12:23:28;101613.53;;;17.49;38.92
46944;BME280;32678;43.852;25.952;2023-05-10T12:28:29;101614.97;;;17.92;38.57
46944;BME280;32678;43.852;25.952;2023-05-10T12:33:35;101584.75;;;17.95;37.95
46944;BME280;32678;43.852;25.952;2023-05-10T12:38:36;101607.16;;;18.24;35.93
46944;BME280;32678;43.852;25.952;2023-05-10T12:43:34;101595.06;;;18.35;36.30
46944;BME280;32678;43.852;25.952;2023-05-10T12:48:32;101590.66;;;18.51;36.46
46944;BME280;32678;43.852;25.952;2023-05-10T12:53:30;101578.03;;;18.72;36.48
46944;BME280;32678;43.852;25.952;2023-05-10T12:58:26;101572.88;;;18.53;36.17
46944;BME280;32678;43.852;25.952;2023-05-10T13:03:32;101566.47;;;18.40;36.23
46944;BME280;32678;43.852;25.952;2023-05-10T13:08:29;101568.34;;;18.55;34.55
46944;BME280;32678;43.852;25.952;2023-05-10T13:13:31;101564.50;;;18.44;34.95
46944;BME280;32678;43.852;25.952;2023-05-10T13:18:28;101557.22;;;18.47;34.71
46944;BME280;32678;43.852;25.952;2023-05-10T13:23:25;101561.88;;;18.27;35.87
46944;BME280;32678;43.852;25.952;2023-05-10T13:28:23;101568.97;;;18.26;37.48
46944;BME280;32678;43.852;25.952;2023-05-10T13:33:20;101560.72;;;18.15;38.06
46944;BME280;32678;43.852;25.952;2023-05-10T13:38:17;101546.03;;;17.91;37.81
46944;BME280;32678;43.852;25.952;2023-05-10T13:43:17;101556.97;;;18.19;37.67
46944;BME280;32678;43.852;25.952;2023-05-10T13:48:14;101549.72;;;18.05;38.16
46944;BME280;32678;43.852;25.952;2023-05-10T13:53:11;101552.28;;;18.07;38.27
46944;BME280;32678;43.852;25.952;2023-05-10T13:58:08;101548.00;;;18.04;38.58
46944;BME280;32678;43.852;25.952;2023-05-10T14:03:06;101542.41;;;17.93;39.03
46944;BME280;32678;43.852;25.952;2023-05-10T14:08:05;101551.25;;;18.09;39.07
46944;BME280;32678;43.852;25.952;2023-05-10T14:13:01;101538.47;;;18.00;39.83
46944;BME280;32678;43.852;25.952;2023-05-10T14:17:59;101545.97;;;18.09;39.77
46944;BME280;32678;43.852;25.952;2023-05-10T14:22:56;101536.28;;;17.91;40.61
46944;BME280;32678;43.852;25.952;2023-05-10T14:27:53;101538.72;;;17.79;40.47
46944;BME280;32678;43.852;25.952;2023-05-10T14:32:50;101535.44;;;17.73;40.78
46944;BME280;32678;43.852;25.952;2023-05-10T14:37:49;101532.63;;;18.11;40.15
46944;BME280;32678;43.852;25.952;2023-05-10T14:42:46;101542.56;;;18.23;38.05
46944;BME280;32678;43.852;25.952;2023-05-10T14:47:43;101530.66;;;18.32;37.21
46944;BME280;32678;43.852;25.952;2023-05-10T14:52:40;101533.25;;;18.66;36.43
46944;BME280;32678;43.852;25.952;2023-05-10T14:57:36;101528.94;;;18.64;36.16
46944;BME280;32678;43.852;25.952;2023-05-10T15:02:34;101536.34;;;18.74;36.69
46944;BME280;32678;43.852;25.952;2023-05-10T15:07:31;101521.28;;;18.57;37.68
46944;BME280;32678;43.852;25.952;2023-05-10T15:12:30;101515.47;;;17.84;39.34
46944;BME280;32678;43.852;25.952;2023-05-10T15:17:26;101526.66;;;18.23;38.75
46944;BME280;32678;43.852;25.952;2023-05-10T15:22:23;101535.66;;;18.21;38.54
46944;BME280;32678;43.852;25.952;2023-05-10T15:27:20;101525.81;;;18.23;38.32
46944;BME280;32678;43.852;25.952;2023-05-10T15:32:17;101524.78;;;18.25;38.02
46944;BME280;32678;43.852;25.952;2023-05-10T15:37:13;101524.00;;;18.23;38.19
46944;BME280;32678;43.852;25.952;2023-05-10T15:42:11;101520.28;;;18.10;37.96
46944;BME280;32678;43.852;25.952;2023-05-10T15:47:07;101521.53;;;18.20;37.45
46944;BME280;32678;43.852;25.952;2023-05-10T15:52:04;101516.13;;;18.22;37.59
46944;BME280;32678;43.852;25.952;2023-05-10T15:57:01;101518.69;;;18.23;37.82
46944;BME280;32678;43.852;25.952;2023-05-10T16:01:58;101531.06;;;18.07;39.75
46944;BME280;32678;43.852;25.952;2023-05-10T16:06:55;101521.56;;;18.03;40.36
46944;BME280;32678;43.852;25.952;2023-05-10T16:11:52;101531.31;;;18.02;41.82
46944;BME280;32678;43.852;25.952;2023-05-10T16:16:48;101532.97;;;17.52;43.74
46944;BME280;32678;43.852;25.952;2023-05-10T16:21:47;101544.34;;;17.18;45.62
46944;BME280;32678;43.852;25.952;2023-05-10T16:26:44;101543.69;;;17.13;46.09
46944;BME280;32678;43.852;25.952;2023-05-10T16:31:40;101547.97;;;17.34;46.19
46944;BME280;32678;43.852;25.952;2023-05-10T16:36:39;101557.88;;;17.12;46.44
46944;BME280;32678;43.852;25.952;2023-05-10T16:41:37;101556.25;;;17.09;46.25
46944;BME280;32678;43.852;25.952;2023-05-10T16:46:33;101549.59;;;17.37;45.24
46944;BME280;32678;43.852;25.952;2023-05-10T16:51:30;101556.91;;;16.96;45.80
46944;BME280;32678;43.852;25.952;2023-05-10T16:56:27;101559.50;;;16.77;46.34
46944;BME280;32678;43.852;25.952;2023-05-10T17:01:24;101555.66;;;16.84;46.06
46944;BME280;32678;43.852;25.952;2023-05-10T17:06:22;101561.88;;;17.02;45.83
46944;BME280;32678;43.852;25.952;2023-05-10T17:11:19;101564.25;;;16.89;45.90
46944;BME280;32678;43.852;25.952;2023-05-10T17:16:16;101563.16;;;17.12;45.83
46944;BME280;32678;43.852;25.952;2023-05-10T17:21:14;101565.13;;;16.89;46.74
46944;BME280;32678;43.852;25.952;2023-05-10T17:26:11;101574.84;;;16.89;47.44
46944;BME280;32678;43.852;25.952;2023-05-10T17:31:08;101585.72;;;16.83;47.58
46944;BME280;32678;43.852;25.952;2023-05-10T17:36:05;101585.56;;;16.86;47.59
46944;BME280;32678;43.852;25.952;2023-05-10T17:41:02;101581.56;;;16.77;47.91
46944;BME280;32678;43.852;25.952;2023-05-10T17:46:00;101589.22;;;16.83;47.42
46944;BME280;32678;43.852;25.952;2023-05-10T17:50:58;101599.31;;;16.55;48.07
46944;BME280;32678;43.852;25.952;2023-05-10T17:55:55;101600.75;;;16.42;48.80
46944;BME280;32678;43.852;25.952;2023-05-10T18:00:54;101598.78;;;16.47;49.00
46944;BME280;32678;43.852;25.952;2023-05-10T18:05:52;101600.59;;;16.06;50.44
46944;BME280;32678;43.852;25.952;2023-05-10T18:10:50;101607.59;;;16.07;50.83
46944;BME280;32678;43.852;25.952;2023-05-10T18:15:47;101615.88;;;15.98;51.27
46944;BME280;32678;43.852;25.952;2023-05-10T18:20:44;101624.28;;;15.87;52.01
46944;BME280;32678;43.852;25.952;2023-05-10T18:25:41;101630.81;;;15.57;52.94
46944;BME280;32678;43.852;25.952;2023-05-10T18:30:39;101631.94;;;15.73;52.85
46944;BME280;32678;43.852;25.952;2023-05-10T18:35:36;101634.38;;;15.56;53.70
46944;BME280;32678;43.852;25.952;2023-05-10T18:40:33;101659.63;;;15.40;54.62
46944;BME280;32678;43.852;25.952;2023-05-10T18:45:30;101650.88;;;15.39;54.29
46944;BME280;32678;43.852;25.952;2023-05-10T18:50:27;101658.97;;;15.11;55.12
46944;BME280;32678;43.852;25.952;2023-05-10T18:55:23;101654.97;;;15.25;54.79
46944;BME280;32678;43.852;25.952;2023-05-10T19:00:21;101667.19;;;15.27;54.34
46944;BME280;32678;43.852;25.952;2023-05-10T19:05:18;101650.56;;;14.77;55.20
46944;BME280;32678;43.852;25.952;2023-05-10T19:10:17;101673.56;;;14.73;55.11
46944;BME280;32678;43.852;25.952;2023-05-10T19:15:14;101679.72;;;14.74;55.14
46944;BME280;32678;43.852;25.952;2023-05-10T19:20:13;101666.63;;;14.46;55.65
46944;BME280;32678;43.852;25.952;2023-05-10T19:25:11;101681.63;;;14.44;56.05
46944;BME280;32678;43.852;25.952;2023-05-10T19:30:08;101697.03;;;14.30;55.44
46944;BME280;32678;43.852;25.952;2023-05-10T19:35:06;101709.88;;;14.14;55.34
46944;BME280;32678;43.852;25.952;2023-05-10T19:40:04;101707.28;;;14.13;54.52
46944;BME280;32678;43.852;25.952;2023-05-10T19:45:00;101704.22;;;13.99;54.86
46944;BME280;32678;43.852;25.952;2023-05-10T19:49:57;101707.34;;;13.83;53.87
46944;BME280;32678;43.852;25.952;2023-05-10T19:54:54;101696.97;;;13.50;54.72
46944;BME280;32678;43.852;25.952;2023-05-10T19:59:52;101686.66;;;13.42;54.18
46944;BME280;32678;43.852;25.952;2023-05-10T20:04:48;101686.88;;;13.34;53.55
46944;BME280;32678;43.852;25.952;2023-05-10T20:09:45;101688.34;;;13.44;53.21
46944;BME280;32678;43.852;25.952;2023-05-10T20:14:42;101673.69;;;13.36;52.98
46944;BME280;32678;43.852;25.952;2023-05-10T20:19:39;101680.25;;;13.51;53.01
46944;BME280;32678;43.852;25.952;2023-05-10T20:24:36;101683.78;;;13.20;53.97
46944;BME280;32678;43.852;25.952;2023-05-10T20:29:33;101693.09;;;13.01;54.87
46944;BME280;32678;43.852;25.952;2023-05-10T20:34:29;101696.59;;;13.01;54.51
46944;BME280;32678;43.852;25.952;2023-05-10T20:39:27;101690.22;;;12.79;55.36
46944;BME280;32678;43.852;25.952;2023-05-10T20:44:23;101699.28;;;12.68;56.05
46944;BME280;32678;43.852;25.952;2023-05-10T20:49:21;101710.91;;;12.91;55.73
46944;BME280;32678;43.852;25.952;2023-05-10T20:54:18;101714.06;;;12.72;56.64
46944;BME280;32678;43.852;25.952;2023-05-10T20:59:16;101710.16;;;12.55;57.64
46944;BME280;32678;43.852;25.952;2023-05-10T21:04:15;101709.22;;;12.23;58.97
46944;BME280;32678;43.852;25.952;2023-05-10T21:09:12;101700.66;;;12.14;60.29
46944;BME280;32678;43.852;25.952;2023-05-10T21:14:08;101709.28;;;12.20;60.31
46944;BME280;32678;43.852;25.952;2023-05-10T21:19:10;101705.81;;;11.82;62.27
46944;BME280;32678;43.852;25.952;2023-05-10T21:24:06;101699.94;;;11.68;63.31
46944;BME280;32678;43.852;25.952;2023-05-10T21:29:03;101698.34;;;11.62;64.15
46944;BME280;32678;43.852;25.952;2023-05-10T21:34:00;101688.53;;;11.70;64.17
46944;BME280;32678;43.852;25.952;2023-05-10T21:38:57;101690.59;;;11.56;65.04
46944;BME280;32678;43.852;25.952;2023-05-10T21:43:53;101699.25;;;11.61;65.33
46944;BME280;32678;43.852;25.952;2023-05-10T21:48:51;101687.63;;;11.73;65.01
46944;BME280;32678;43.852;25.952;2023-05-10T21:53:48;101690.19;;;11.76;64.91
46944;BME280;32678;43.852;25.952;2023-05-10T21:58:46;101700.88;;;11.67;65.56
46944;BME280;32678;43.852;25.952;2023-05-10T22:03:42;101708.00;;;11.62;65.91
46944;BME280;32678;43.852;25.952;2023-05-10T22:08:39;101695.25;;;11.44;66.97
46944;BME280;32678;43.852;25.952;2023-05-10T22:13:36;101698.63;;;11.49;67.07
46944;BME280;32678;43.852;25.952;2023-05-10T22:18:33;101699.25;;;11.61;66.76
46944;BME280;32678;43.852;25.952;2023-05-10T22:23:30;101701.63;;;11.72;66.57
46944;BME280;32678;43.852;25.952;2023-05-10T22:28:26;101702.88;;;11.94;65.83
46944;BME280;32678;43.852;25.952;2023-05-10T22:33:23;101706.91;;;12.10;64.82
46944;BME280;32678;43.852;25.952;2023-05-10T22:38:20;101707.16;;;11.98;65.51
46944;BME280;32678;43.852;25.952;2023-05-10T22:43:17;101699.94;;;12.42;64.04
46944;BME280;32678;43.852;25.952;2023-05-10T22:48:15;101698.69;;;12.56;63.08
46944;BME280;32678;43.852;25.952;2023-05-10T22:53:11;101679.31;;;12.61;62.86
46944;BME280;32678;43.852;25.952;2023-05-10T22:58:08;101696.78;;;12.63;62.36
46944;BME280;32678;43.852;25.952;2023-05-10T23:03:05;101678.97;;;12.73;62.51
46944;BME280;32678;43.852;25.952;2023-05-10T23:08:02;101698.97;;;12.80;62.31
46944;BME280;32678;43.852;25.952;2023-05-10T23:12:58;101701.22;;;12.93;61.93
46944;BME280;32678;43.852;25.952;2023-05-10T23:17:56;101692.88;;;12.78;62.29
46944;BME280;32678;43.852;25.952;2023-05-10T23:22:55;101701.84;;;13.01;61.59
46944;BME280;32678;43.852;25.952;2023-05-10T23:27:52;101707.19;;;13.31;61.04
46944;BME280;32678;43.852;25.952;2023-05-10T23:32:48;101706.28;;;13.32;59.78
46944;BME280;32678;43.852;25.952;2023-05-10T23:37:46;101703.59;;;13.02;60.54
46944;BME280;32678;43.852;25.952;2023-05-10T23:42:42;101715.00;;;13.03;60.79
46944;BME280;32678;43.852;25.952;2023-05-10T23:47:39;101706.94;;;13.09;60.61
46944;BME280;32678;43.852;25.952;2023-05-10T23:52:36;101707.97;;;13.34;60.38
46944;BME280;32678;43.852;25.952;2023-05-10T23:57:36;101716.34;;;13.49;59.68
